sensor_id;sensor_type;location;lat;lon;timestamp;P1;durP1;ratioP1;P2;durP2;ratioP2
9052;SDS011;4561;47.450;7.516;2022-12-07T00:02:20;14.57;;;13.07;;
9052;SDS011;4561;47.450;7.516;2022-12-07T00:05:40;17.27;;;14.43;;
9052;SDS011;4561;47.450;7.516;2022-12-07T00:09:01;16.00;;;14.30;;
9052;SDS011;4561;47.450;7.516;2022-12-07T00:12:21;16.97;;;15.07;;
9052;SDS011;4561;47.450;7.516;2022-12-07T00:15:42;16.30;;;14.13;;
9052;SDS011;4561;47.450;7.516;2022-12-07T00:19:03;18.70;;;15.90;;
9052;SDS011;4561;47.450;7.516;2022-12-07T00:22:23;18.90;;;14.47;;
9052;SDS011;4561;47.450;7.516;2022-12-07T00:25:44;18.10;;;15.87;;
9052;SDS011;4561;47.450;7.516;2022-12-07T00:29:05;17.43;;;15.50;;
9052;SDS011;4561;47.450;7.516;2022-12-07T00:32:29;16.70;;;14.87;;
9052;SDS011;4561;47.450;7.516;2022-12-07T00:35:54;17.87;;;15.90;;
9052;SDS011;4561;47.450;7.516;2022-12-07T00:39:16;17.13;;;15.17;;
9052;SDS011;4561;47.450;7.516;2022-12-07T00:42:36;16.27;;;14.57;;
9052;SDS011;4561;47.450;7.516;2022-12-07T00:45:57;18.33;;;15.33;;
9052;SDS011;4561;47.450;7.516;2022-12-07T00:49:17;15.77;;;14.07;;
9052;SDS011;4561;47.450;7.516;2022-12-07T00:52:40;16.83;;;15.13;;
9052;SDS011;4561;47.450;7.516;2022-12-07T00:56:07;16.13;;;14.43;;
9052;SDS011;4561;47.450;7.516;2022-12-07T00:59:34;15.53;;;13.90;;
9052;SDS011;4561;47.450;7.516;2022-12-07T01:02:54;15.60;;;14.00;;
9052;SDS011;4561;47.450;7.516;2022-12-07T01:06:15;17.47;;;15.50;;
9052;SDS011;4561;47.450;7.516;2022-12-07T01:09:37;17.13;;;15.33;;
9052;SDS011;4561;47.450;7.516;2022-12-07T01:13:00;18.00;;;16.10;;
9052;SDS011;4561;47.450;7.516;2022-12-07T01:16:21;17.77;;;15.97;;
9052;SDS011;4561;47.450;7.516;2022-12-07T01:19:42;18.47;;;15.43;;
9052;SDS011;4561;47.450;7.516;2022-12-07T01:23:03;18.20;;;16.07;;
9052;SDS011;4561;47.450;7.516;2022-12-07T01:26:23;15.60;;;13.97;;
9052;SDS011;4561;47.450;7.516;2022-12-07T01:29:44;16.80;;;15.00;;
9052;SDS011;4561;47.450;7.516;2022-12-07T01:33:07;16.97;;;14.67;;
9052;SDS011;4561;47.450;7.516;2022-12-07T01:36:29;11.23;;;10.17;;
9052;SDS011;4561;47.450;7.516;2022-12-07T01:39:54;11.03;;;9.93;;
9052;SDS011;4561;47.450;7.516;2022-12-07T01:43:17;11.30;;;10.20;;
9052;SDS011;4561;47.450;7.516;2022-12-07T01:46:42;11.00;;;9.57;;
9052;SDS011;4561;47.450;7.516;2022-12-07T01:50:07;9.83;;;8.83;;
9052;SDS011;4561;47.450;7.516;2022-12-07T01:53:28;9.90;;;8.90;;
9052;SDS011;4561;47.450;7.516;2022-12-07T01:56:51;9.17;;;8.37;;
9052;SDS011;4561;47.450;7.516;2022-12-07T02:00:15;7.67;;;6.97;;
9052;SDS011;4561;47.450;7.516;2022-12-07T02:03:38;7.70;;;6.93;;
9052;SDS011;4561;47.450;7.516;2022-12-07T02:07:01;7.47;;;6.77;;
9052;SDS011;4561;47.450;7.516;2022-12-07T02:10:26;7.70;;;7.00;;
9052;SDS011;4561;47.450;7.516;2022-12-07T02:13:48;8.47;;;7.60;;
9052;SDS011;4561;47.450;7.516;2022-12-07T02:31:12;10.30;;;9.23;;
9052;SDS011;4561;47.450;7.516;2022-12-07T02:38:47;10.73;;;9.63;;
9052;SDS011;4561;47.450;7.516;2022-12-07T02:42:16;15.47;;;13.97;;
9052;SDS011;4561;47.450;7.516;2022-12-07T02:45:39;17.83;;;15.93;;
9052;SDS011;4561;47.450;7.516;2022-12-07T02:49:03;15.83;;;14.17;;
9052;SDS011;4561;47.450;7.516;2022-12-07T02:52:27;18.70;;;16.00;;
9052;SDS011;4561;47.450;7.516;2022-12-07T02:55:47;18.03;;;16.10;;
9052;SDS011;4561;47.450;7.516;2022-12-07T03:03:09;20.77;;;18.20;;
9052;SDS011;4561;47.450;7.516;2022-12-07T03:06:34;21.57;;;18.77;;
9052;SDS011;4561;47.450;7.516;2022-12-07T03:13:41;23.57;;;19.50;;
9052;SDS011;4561;47.450;7.516;2022-12-07T03:17:03;23.80;;;21.00;;
9052;SDS011;4561;47.450;7.516;2022-12-07T03:20:30;26.00;;;21.07;;
9052;SDS011;4561;47.450;7.516;2022-12-07T03:23:53;25.90;;;21.83;;
9052;SDS011;4561;47.450;7.516;2022-12-07T03:27:18;24.13;;;18.77;;
9052;SDS011;4561;47.450;7.516;2022-12-07T03:30:44;20.03;;;17.83;;
9052;SDS011;4561;47.450;7.516;2022-12-07T03:34:07;24.00;;;20.47;;
9052;SDS011;4561;47.450;7.516;2022-12-07T03:41:00;28.60;;;23.67;;
9052;SDS011;4561;47.450;7.516;2022-12-07T03:44:23;21.27;;;18.43;;
9052;SDS011;4561;47.450;7.516;2022-12-07T03:47:54;22.33;;;18.00;;
9052;SDS011;4561;47.450;7.516;2022-12-07T03:51:28;19.37;;;17.03;;
9052;SDS011;4561;47.450;7.516;2022-12-07T03:54:58;20.50;;;17.00;;
9052;SDS011;4561;47.450;7.516;2022-12-07T03:58:22;21.40;;;18.23;;
9052;SDS011;4561;47.450;7.516;2022-12-07T04:01:44;18.50;;;15.93;;
9052;SDS011;4561;47.450;7.516;2022-12-07T04:05:05;20.47;;;17.33;;
9052;SDS011;4561;47.450;7.516;2022-12-07T04:08:28;21.07;;;17.20;;
9052;SDS011;4561;47.450;7.516;2022-12-07T04:11:48;19.70;;;17.60;;
9052;SDS011;4561;47.450;7.516;2022-12-07T04:15:09;25.93;;;19.90;;
9052;SDS011;4561;47.450;7.516;2022-12-07T04:18:29;27.50;;;20.20;;
9052;SDS011;4561;47.450;7.516;2022-12-07T04:21:50;24.37;;;19.53;;
9052;SDS011;4561;47.450;7.516;2022-12-07T04:25:10;24.43;;;19.93;;
9052;SDS011;4561;47.450;7.516;2022-12-07T04:28:33;24.83;;;20.40;;
9052;SDS011;4561;47.450;7.516;2022-12-07T04:31:54;27.00;;;22.87;;
9052;SDS011;4561;47.450;7.516;2022-12-07T04:35:14;29.07;;;22.77;;
9052;SDS011;4561;47.450;7.516;2022-12-07T04:38:35;26.70;;;21.20;;
9052;SDS011;4561;47.450;7.516;2022-12-07T04:41:58;26.50;;;21.33;;
9052;SDS011;4561;47.450;7.516;2022-12-07T04:45:19;27.53;;;21.07;;
9052;SDS011;4561;47.450;7.516;2022-12-07T04:48:39;31.70;;;23.43;;
9052;SDS011;4561;47.450;7.516;2022-12-07T04:52:00;31.37;;;23.23;;
9052;SDS011;4561;47.450;7.516;2022-12-07T04:55:20;32.80;;;23.90;;
9052;SDS011;4561;47.450;7.516;2022-12-07T04:58:44;32.33;;;23.60;;
9052;SDS011;4561;47.450;7.516;2022-12-07T05:02:05;33.43;;;23.83;;
9052;SDS011;4561;47.450;7.516;2022-12-07T05:05:25;35.07;;;24.83;;
9052;SDS011;4561;47.450;7.516;2022-12-07T05:08:46;34.87;;;23.67;;
9052;SDS011;4561;47.450;7.516;2022-12-07T05:12:06;32.33;;;22.73;;
9052;SDS011;4561;47.450;7.516;2022-12-07T05:15:27;32.27;;;22.33;;
9052;SDS011;4561;47.450;7.516;2022-12-07T05:18:47;36.87;;;22.17;;
9052;SDS011;4561;47.450;7.516;2022-12-07T05:22:07;27.93;;;19.83;;
9052;SDS011;4561;47.450;7.516;2022-12-07T05:25:28;24.73;;;18.23;;
9052;SDS011;4561;47.450;7.516;2022-12-07T05:28:52;30.80;;;18.33;;
9052;SDS011;4561;47.450;7.516;2022-12-07T05:32:13;25.13;;;17.37;;
9052;SDS011;4561;47.450;7.516;2022-12-07T05:35:33;22.37;;;16.77;;
9052;SDS011;4561;47.450;7.516;2022-12-07T05:38:57;24.40;;;17.07;;
9052;SDS011;4561;47.450;7.516;2022-12-07T05:42:18;25.47;;;18.30;;
9052;SDS011;4561;47.450;7.516;2022-12-07T05:45:41;21.70;;;16.60;;
9052;SDS011;4561;47.450;7.516;2022-12-07T05:49:01;18.97;;;14.50;;
9052;SDS011;4561;47.450;7.516;2022-12-07T05:52:27;15.60;;;13.57;;
9052;SDS011;4561;47.450;7.516;2022-12-07T05:55:50;14.87;;;12.73;;
9052;SDS011;4561;47.450;7.516;2022-12-07T05:59:14;13.20;;;10.60;;
9052;SDS011;4561;47.450;7.516;2022-12-07T06:02:43;8.00;;;7.17;;
9052;SDS011;4561;47.450;7.516;2022-12-07T06:06:06;7.33;;;6.20;;
9052;SDS011;4561;47.450;7.516;2022-12-07T06:09:27;7.57;;;6.50;;
9052;SDS011;4561;47.450;7.516;2022-12-07T06:12:50;5.80;;;5.20;;
9052;SDS011;4561;47.450;7.516;2022-12-07T06:16:10;6.23;;;5.27;;
9052;SDS011;4561;47.450;7.516;2022-12-07T06:19:31;7.10;;;6.07;;
9052;SDS011;4561;47.450;7.516;2022-12-07T06:22:51;7.67;;;5.77;;
9052;SDS011;4561;47.450;7.516;2022-12-07T06:26:11;4.83;;;4.30;;
9052;SDS011;4561;47.450;7.516;2022-12-07T06:29:32;6.07;;;4.77;;
9052;SDS011;4561;47.450;7.516;2022-12-07T06:32:52;6.17;;;4.80;;
9052;SDS011;4561;47.450;7.516;2022-12-07T06:36:13;5.30;;;4.47;;
9052;SDS011;4561;47.450;7.516;2022-12-07T06:39:35;5.10;;;4.60;;
9052;SDS011;4561;47.450;7.516;2022-12-07T06:42:56;4.67;;;4.27;;
9052;SDS011;4561;47.450;7.516;2022-12-07T06:46:18;5.33;;;4.67;;
9052;SDS011;4561;47.450;7.516;2022-12-07T06:49:39;6.00;;;5.33;;
9052;SDS011;4561;47.450;7.516;2022-12-07T06:53:00;5.60;;;5.10;;
9052;SDS011;4561;47.450;7.516;2022-12-07T06:56:20;5.63;;;5.03;;
9052;SDS011;4561;47.450;7.516;2022-12-07T06:59:40;7.40;;;6.70;;
9052;SDS011;4561;47.450;7.516;2022-12-07T07:03:01;8.03;;;6.80;;
9052;SDS011;4561;47.450;7.516;2022-12-07T07:06:21;12.90;;;11.60;;
9052;SDS011;4561;47.450;7.516;2022-12-07T07:09:44;11.73;;;10.53;;
9052;SDS011;4561;47.450;7.516;2022-12-07T07:13:07;9.20;;;8.10;;
9052;SDS011;4561;47.450;7.516;2022-12-07T07:16:29;8.03;;;6.73;;
9052;SDS011;4561;47.450;7.516;2022-12-07T07:19:53;10.63;;;9.53;;
9052;SDS011;4561;47.450;7.516;2022-12-07T07:23:16;18.37;;;12.20;;
9052;SDS011;4561;47.450;7.516;2022-12-07T07:26:38;16.33;;;12.07;;
9052;SDS011;4561;47.450;7.516;2022-12-07T07:29:58;13.10;;;11.70;;
9052;SDS011;4561;47.450;7.516;2022-12-07T07:33:19;14.10;;;11.37;;
9052;SDS011;4561;47.450;7.516;2022-12-07T07:36:42;16.87;;;12.87;;
9052;SDS011;4561;47.450;7.516;2022-12-07T07:40:04;15.37;;;12.20;;
9052;SDS011;4561;47.450;7.516;2022-12-07T07:43:25;13.77;;;11.57;;
9052;SDS011;4561;47.450;7.516;2022-12-07T07:46:46;12.17;;;10.83;;
9052;SDS011;4561;47.450;7.516;2022-12-07T07:50:06;13.33;;;11.37;;
9052;SDS011;4561;47.450;7.516;2022-12-07T07:53:27;14.60;;;10.90;;
9052;SDS011;4561;47.450;7.516;2022-12-07T07:56:47;13.93;;;11.40;;
9052;SDS011;4561;47.450;7.516;2022-12-07T08:00:09;57.13;;;51.00;;
9052;SDS011;4561;47.450;7.516;2022-12-07T08:03:33;15.50;;;13.90;;
9052;SDS011;4561;47.450;7.516;2022-12-07T08:06:54;18.33;;;14.03;;
9052;SDS011;4561;47.450;7.516;2022-12-07T08:10:17;16.17;;;13.60;;
9052;SDS011;4561;47.450;7.516;2022-12-07T08:13:37;14.30;;;11.50;;
9052;SDS011;4561;47.450;7.516;2022-12-07T08:16:58;15.13;;;12.03;;
9052;SDS011;4561;47.450;7.516;2022-12-07T08:20:18;14.73;;;12.57;;
9052;SDS011;4561;47.450;7.516;2022-12-07T08:23:38;13.43;;;11.43;;
9052;SDS011;4561;47.450;7.516;2022-12-07T08:27:01;13.13;;;10.70;;
9052;SDS011;4561;47.450;7.516;2022-12-07T08:30:23;12.93;;;11.47;;
9052;SDS011;4561;47.450;7.516;2022-12-07T08:33:46;13.03;;;11.00;;
9052;SDS011;4561;47.450;7.516;2022-12-07T08:37:07;15.53;;;13.27;;
9052;SDS011;4561;47.450;7.516;2022-12-07T08:40:27;14.13;;;12.50;;
9052;SDS011;4561;47.450;7.516;2022-12-07T08:43:48;13.50;;;11.30;;
9052;SDS011;4561;47.450;7.516;2022-12-07T08:47:08;13.97;;;11.77;;
9052;SDS011;4561;47.450;7.516;2022-12-07T08:50:30;12.47;;;10.97;;
9052;SDS011;4561;47.450;7.516;2022-12-07T08:53:51;13.07;;;11.17;;
9052;SDS011;4561;47.450;7.516;2022-12-07T08:57:14;14.53;;;13.00;;
9052;SDS011;4561;47.450;7.516;2022-12-07T09:00:37;15.03;;;12.53;;
9052;SDS011;4561;47.450;7.516;2022-12-07T09:03:58;12.67;;;11.10;;
9052;SDS011;4561;47.450;7.516;2022-12-07T09:07:18;10.63;;;9.53;;
9052;SDS011;4561;47.450;7.516;2022-12-07T09:10:38;11.63;;;9.43;;
9052;SDS011;4561;47.450;7.516;2022-12-07T09:13:59;13.63;;;11.23;;
9052;SDS011;4561;47.450;7.516;2022-12-07T09:17:19;13.97;;;11.43;;
9052;SDS011;4561;47.450;7.516;2022-12-07T09:20:39;11.97;;;10.33;;
9052;SDS011;4561;47.450;7.516;2022-12-07T09:24:02;10.20;;;9.20;;
9052;SDS011;4561;47.450;7.516;2022-12-07T09:27:23;15.03;;;12.53;;
9052;SDS011;4561;47.450;7.516;2022-12-07T09:30:47;11.97;;;10.03;;
9052;SDS011;4561;47.450;7.516;2022-12-07T09:34:08;11.53;;;8.80;;
9052;SDS011;4561;47.450;7.516;2022-12-07T09:37:29;9.97;;;8.80;;
9052;SDS011;4561;47.450;7.516;2022-12-07T09:40:49;11.37;;;9.47;;
9052;SDS011;4561;47.450;7.516;2022-12-07T09:44:11;9.20;;;8.30;;
9052;SDS011;4561;47.450;7.516;2022-12-07T09:47:34;9.63;;;8.23;;
9052;SDS011;4561;47.450;7.516;2022-12-07T09:50:55;10.03;;;8.90;;
9052;SDS011;4561;47.450;7.516;2022-12-07T09:54:17;9.37;;;8.40;;
9052;SDS011;4561;47.450;7.516;2022-12-07T09:57:38;9.57;;;8.57;;
9052;SDS011;4561;47.450;7.516;2022-12-07T10:04:27;8.80;;;7.97;;
9052;SDS011;4561;47.450;7.516;2022-12-07T10:07:49;10.57;;;9.53;;
9052;SDS011;4561;47.450;7.516;2022-12-07T10:11:10;9.33;;;8.37;;
9052;SDS011;4561;47.450;7.516;2022-12-07T10:14:32;11.10;;;9.50;;
9052;SDS011;4561;47.450;7.516;2022-12-07T10:17:53;10.20;;;9.20;;
9052;SDS011;4561;47.450;7.516;2022-12-07T10:21:19;9.47;;;8.53;;
9052;SDS011;4561;47.450;7.516;2022-12-07T10:24:44;9.50;;;8.50;;
9052;SDS011;4561;47.450;7.516;2022-12-07T10:31:28;9.57;;;8.57;;
9052;SDS011;4561;47.450;7.516;2022-12-07T10:34:48;9.77;;;8.73;;
9052;SDS011;4561;47.450;7.516;2022-12-07T10:38:09;9.47;;;8.57;;
9052;SDS011;4561;47.450;7.516;2022-12-07T10:41:40;9.77;;;8.23;;
9052;SDS011;4561;47.450;7.516;2022-12-07T10:45:14;9.53;;;8.33;;
9052;SDS011;4561;47.450;7.516;2022-12-07T10:56:21;8.27;;;7.47;;
9052;SDS011;4561;47.450;7.516;2022-12-07T11:06:33;6.43;;;5.93;;
9052;SDS011;4561;47.450;7.516;2022-12-07T11:10:13;6.10;;;5.50;;
9052;SDS011;4561;47.450;7.516;2022-12-07T11:13:48;6.03;;;5.53;;
9052;SDS011;4561;47.450;7.516;2022-12-07T11:28:25;4.80;;;4.40;;
9052;SDS011;4561;47.450;7.516;2022-12-07T11:39:11;5.03;;;4.63;;
9052;SDS011;4561;47.450;7.516;2022-12-07T11:42:52;4.67;;;4.27;;
9052;SDS011;4561;47.450;7.516;2022-12-07T11:46:16;6.17;;;5.57;;
9052;SDS011;4561;47.450;7.516;2022-12-07T11:49:44;6.10;;;5.50;;
9052;SDS011;4561;47.450;7.516;2022-12-07T11:56:29;6.60;;;5.30;;
9052;SDS011;4561;47.450;7.516;2022-12-07T11:59:51;8.37;;;5.77;;
9052;SDS011;4561;47.450;7.516;2022-12-07T12:03:15;6.90;;;6.30;;
9052;SDS011;4561;47.450;7.516;2022-12-07T12:06:50;6.50;;;5.90;;
9052;SDS011;4561;47.450;7.516;2022-12-07T12:10:25;7.93;;;6.40;;
9052;SDS011;4561;47.450;7.516;2022-12-07T12:21:57;8.27;;;7.40;;
9052;SDS011;4561;47.450;7.516;2022-12-07T12:32:22;9.63;;;8.43;;
9052;SDS011;4561;47.450;7.516;2022-12-07T12:35:44;10.40;;;9.27;;
9052;SDS011;4561;47.450;7.516;2022-12-07T12:42:43;10.63;;;9.13;;
9052;SDS011;4561;47.450;7.516;2022-12-07T12:53:34;9.93;;;8.93;;
9052;SDS011;4561;47.450;7.516;2022-12-07T13:00:24;8.97;;;8.07;;
9052;SDS011;4561;47.450;7.516;2022-12-07T13:03:52;8.23;;;7.43;;
9052;SDS011;4561;47.450;7.516;2022-12-07T13:07:13;9.50;;;8.50;;
9052;SDS011;4561;47.450;7.516;2022-12-07T13:11:15;9.40;;;8.40;;
9052;SDS011;4561;47.450;7.516;2022-12-07T13:14:56;10.63;;;9.10;;
9052;SDS011;4561;47.450;7.516;2022-12-07T13:21:47;9.07;;;8.17;;
9052;SDS011;4561;47.450;7.516;2022-12-07T13:25:11;8.20;;;7.40;;
9052;SDS011;4561;47.450;7.516;2022-12-07T13:28:44;7.97;;;7.17;;
9052;SDS011;4561;47.450;7.516;2022-12-07T13:32:17;8.63;;;7.70;;
9052;SDS011;4561;47.450;7.516;2022-12-07T13:35:52;8.90;;;8.00;;
9052;SDS011;4561;47.450;7.516;2022-12-07T13:42:34;9.83;;;8.83;;
9052;SDS011;4561;47.450;7.516;2022-12-07T13:45:58;10.00;;;9.00;;
9052;SDS011;4561;47.450;7.516;2022-12-07T13:49:31;10.00;;;8.57;;
9052;SDS011;4561;47.450;7.516;2022-12-07T13:52:56;11.10;;;9.03;;
9052;SDS011;4561;47.450;7.516;2022-12-07T13:56:21;10.70;;;9.60;;
9052;SDS011;4561;47.450;7.516;2022-12-07T13:59:45;11.50;;;10.27;;
9052;SDS011;4561;47.450;7.516;2022-12-07T14:06:31;10.43;;;9.43;;
9052;SDS011;4561;47.450;7.516;2022-12-07T14:16:42;10.43;;;9.33;;
9052;SDS011;4561;47.450;7.516;2022-12-07T14:20:02;10.43;;;9.33;;
9052;SDS011;4561;47.450;7.516;2022-12-07T14:23:25;10.93;;;9.83;;
9052;SDS011;4561;47.450;7.516;2022-12-07T14:26:49;11.30;;;10.20;;
9052;SDS011;4561;47.450;7.516;2022-12-07T14:30:15;11.30;;;10.10;;
9052;SDS011;4561;47.450;7.516;2022-12-07T14:33:38;9.90;;;8.97;;
9052;SDS011;4561;47.450;7.516;2022-12-07T14:36:59;10.77;;;9.63;;
9052;SDS011;4561;47.450;7.516;2022-12-07T14:40:26;10.70;;;9.60;;
9052;SDS011;4561;47.450;7.516;2022-12-07T14:43:47;10.87;;;9.77;;
9052;SDS011;4561;47.450;7.516;2022-12-07T14:47:11;9.20;;;8.07;;
9052;SDS011;4561;47.450;7.516;2022-12-07T14:50:33;10.90;;;9.80;;
9052;SDS011;4561;47.450;7.516;2022-12-07T14:53:55;10.80;;;9.03;;
9052;SDS011;4561;47.450;7.516;2022-12-07T14:57:16;12.70;;;9.83;;
9052;SDS011;4561;47.450;7.516;2022-12-07T15:00:36;15.73;;;9.93;;
9052;SDS011;4561;47.450;7.516;2022-12-07T15:03:57;11.07;;;9.97;;
9052;SDS011;4561;47.450;7.516;2022-12-07T15:07:18;11.37;;;10.20;;
9052;SDS011;4561;47.450;7.516;2022-12-07T15:10:40;11.50;;;10.30;;
9052;SDS011;4561;47.450;7.516;2022-12-07T15:14:00;14.53;;;13.13;;
9052;SDS011;4561;47.450;7.516;2022-12-07T15:17:33;10.73;;;9.63;;
9052;SDS011;4561;47.450;7.516;2022-12-07T15:20:53;10.17;;;9.17;;
9052;SDS011;4561;47.450;7.516;2022-12-07T15:24:14;10.87;;;9.77;;
9052;SDS011;4561;47.450;7.516;2022-12-07T15:27:34;11.53;;;10.33;;
9052;SDS011;4561;47.450;7.516;2022-12-07T15:30:55;20.00;;;17.90;;
9052;SDS011;4561;47.450;7.516;2022-12-07T15:34:15;13.83;;;12.37;;
9052;SDS011;4561;47.450;7.516;2022-12-07T15:37:35;11.47;;;10.27;;
9052;SDS011;4561;47.450;7.516;2022-12-07T15:40:58;13.03;;;10.30;;
9052;SDS011;4561;47.450;7.516;2022-12-07T15:44:19;12.27;;;10.97;;
9052;SDS011;4561;47.450;7.516;2022-12-07T15:47:58;15.67;;;13.00;;
9052;SDS011;4561;47.450;7.516;2022-12-07T15:51:20;13.57;;;11.73;;
9052;SDS011;4561;47.450;7.516;2022-12-07T15:54:41;10.53;;;9.30;;
9052;SDS011;4561;47.450;7.516;2022-12-07T15:58:01;9.80;;;8.20;;
9052;SDS011;4561;47.450;7.516;2022-12-07T16:01:21;9.47;;;8.47;;
9052;SDS011;4561;47.450;7.516;2022-12-07T16:04:46;11.23;;;9.20;;
9052;SDS011;4561;47.450;7.516;2022-12-07T16:08:10;11.23;;;8.93;;
9052;SDS011;4561;47.450;7.516;2022-12-07T16:11:30;9.87;;;8.80;;
9052;SDS011;4561;47.450;7.516;2022-12-07T16:14:51;10.77;;;9.30;;
9052;SDS011;4561;47.450;7.516;2022-12-07T16:18:14;11.73;;;10.53;;
9052;SDS011;4561;47.450;7.516;2022-12-07T16:21:34;12.30;;;9.73;;
9052;SDS011;4561;47.450;7.516;2022-12-07T16:24:55;10.07;;;9.07;;
9052;SDS011;4561;47.450;7.516;2022-12-07T16:28:15;10.00;;;9.00;;
9052;SDS011;4561;47.450;7.516;2022-12-07T16:31:38;10.33;;;8.20;;
9052;SDS011;4561;47.450;7.516;2022-12-07T16:34:59;10.27;;;8.43;;
9052;SDS011;4561;47.450;7.516;2022-12-07T16:38:19;8.87;;;7.97;;
9052;SDS011;4561;47.450;7.516;2022-12-07T16:41:39;9.30;;;8.40;;
9052;SDS011;4561;47.450;7.516;2022-12-07T16:45:00;10.37;;;8.43;;
9052;SDS011;4561;47.450;7.516;2022-12-07T16:48:21;11.23;;;9.33;;
9052;SDS011;4561;47.450;7.516;2022-12-07T16:51:42;10.27;;;9.07;;
9052;SDS011;4561;47.450;7.516;2022-12-07T16:55:07;10.57;;;9.47;;
9052;SDS011;4561;47.450;7.516;2022-12-07T16:58:30;10.87;;;9.77;;
9052;SDS011;4561;47.450;7.516;2022-12-07T17:01:50;11.23;;;9.97;;
9052;SDS011;4561;47.450;7.516;2022-12-07T17:05:11;10.43;;;8.90;;
9052;SDS011;4561;47.450;7.516;2022-12-07T17:08:34;10.50;;;8.63;;
9052;SDS011;4561;47.450;7.516;2022-12-07T17:11:55;9.70;;;8.77;;
9052;SDS011;4561;47.450;7.516;2022-12-07T17:15:15;10.60;;;9.50;;
9052;SDS011;4561;47.450;7.516;2022-12-07T17:18:43;10.73;;;9.63;;
9052;SDS011;4561;47.450;7.516;2022-12-07T17:22:03;13.53;;;10.30;;
9052;SDS011;4561;47.450;7.516;2022-12-07T17:25:27;11.07;;;9.13;;
9052;SDS011;4561;47.450;7.516;2022-12-07T17:28:47;11.23;;;9.70;;
9052;SDS011;4561;47.450;7.516;2022-12-07T17:32:08;11.60;;;9.73;;
9052;SDS011;4561;47.450;7.516;2022-12-07T17:35:28;11.13;;;9.90;;
9052;SDS011;4561;47.450;7.516;2022-12-07T17:38:51;12.93;;;10.27;;
9052;SDS011;4561;47.450;7.516;2022-12-07T17:42:12;10.80;;;9.47;;
9052;SDS011;4561;47.450;7.516;2022-12-07T17:45:52;12.80;;;10.57;;
9052;SDS011;4561;47.450;7.516;2022-12-07T17:49:12;11.93;;;10.27;;
9052;SDS011;4561;47.450;7.516;2022-12-07T17:52:33;13.50;;;12.10;;
9052;SDS011;4561;47.450;7.516;2022-12-07T17:56:12;15.47;;;12.17;;
9052;SDS011;4561;47.450;7.516;2022-12-07T17:59:32;12.87;;;11.43;;
9052;SDS011;4561;47.450;7.516;2022-12-07T18:02:53;17.37;;;15.60;;
9052;SDS011;4561;47.450;7.516;2022-12-07T18:06:13;17.03;;;13.93;;
9052;SDS011;4561;47.450;7.516;2022-12-07T18:09:33;17.70;;;14.40;;
9052;SDS011;4561;47.450;7.516;2022-12-07T18:12:54;17.07;;;14.50;;
9052;SDS011;4561;47.450;7.516;2022-12-07T18:16:34;17.07;;;14.57;;
9052;SDS011;4561;47.450;7.516;2022-12-07T18:19:54;12.70;;;11.40;;
9052;SDS011;4561;47.450;7.516;2022-12-07T18:23:15;13.83;;;12.33;;
9052;SDS011;4561;47.450;7.516;2022-12-07T18:26:35;14.00;;;12.50;;
9052;SDS011;4561;47.450;7.516;2022-12-07T18:29:56;14.83;;;12.33;;
9052;SDS011;4561;47.450;7.516;2022-12-07T18:33:19;14.47;;;12.33;;
9052;SDS011;4561;47.450;7.516;2022-12-07T18:36:41;16.33;;;13.67;;
9052;SDS011;4561;47.450;7.516;2022-12-07T18:40:05;16.10;;;13.80;;
9052;SDS011;4561;47.450;7.516;2022-12-07T18:43:26;22.53;;;16.70;;
9052;SDS011;4561;47.450;7.516;2022-12-07T18:46:46;18.83;;;15.23;;
9052;SDS011;4561;47.450;7.516;2022-12-07T18:50:07;17.67;;;15.73;;
9052;SDS011;4561;47.450;7.516;2022-12-07T18:53:28;18.80;;;15.73;;
9052;SDS011;4561;47.450;7.516;2022-12-07T18:56:48;16.87;;;14.30;;
9052;SDS011;4561;47.450;7.516;2022-12-07T19:00:09;14.23;;;12.30;;
9052;SDS011;4561;47.450;7.516;2022-12-07T19:03:32;16.47;;;14.53;;
9052;SDS011;4561;47.450;7.516;2022-12-07T19:06:55;18.80;;;14.40;;
9052;SDS011;4561;47.450;7.516;2022-12-07T19:10:15;20.00;;;17.97;;
9052;SDS011;4561;47.450;7.516;2022-12-07T19:13:38;18.07;;;11.73;;
9052;SDS011;4561;47.450;7.516;2022-12-07T19:17:02;17.73;;;15.00;;
9052;SDS011;4561;47.450;7.516;2022-12-07T19:20:24;24.10;;;18.97;;
9052;SDS011;4561;47.450;7.516;2022-12-07T19:23:45;15.00;;;13.03;;
9052;SDS011;4561;47.450;7.516;2022-12-07T19:27:06;17.07;;;15.27;;
9052;SDS011;4561;47.450;7.516;2022-12-07T19:30:27;15.17;;;13.50;;
9052;SDS011;4561;47.450;7.516;2022-12-07T19:33:49;15.70;;;13.17;;
9052;SDS011;4561;47.450;7.516;2022-12-07T19:37:10;15.37;;;13.57;;
9052;SDS011;4561;47.450;7.516;2022-12-07T19:40:31;14.40;;;12.73;;
9052;SDS011;4561;47.450;7.516;2022-12-07T19:43:54;15.63;;;13.07;;
9052;SDS011;4561;47.450;7.516;2022-12-07T19:47:15;15.13;;;12.40;;
9052;SDS011;4561;47.450;7.516;2022-12-07T19:50:36;16.40;;;13.30;;
9052;SDS011;4561;47.450;7.516;2022-12-07T19:53:59;17.87;;;13.50;;
9052;SDS011;4561;47.450;7.516;2022-12-07T19:57:20;15.90;;;14.10;;
9052;SDS011;4561;47.450;7.516;2022-12-07T20:00:43;16.27;;;13.70;;
9052;SDS011;4561;47.450;7.516;2022-12-07T20:04:04;14.60;;;12.93;;
9052;SDS011;4561;47.450;7.516;2022-12-07T20:07:26;17.80;;;13.23;;
9052;SDS011;4561;47.450;7.516;2022-12-07T20:10:46;23.80;;;20.27;;
9052;SDS011;4561;47.450;7.516;2022-12-07T20:14:07;25.67;;;20.87;;
9052;SDS011;4561;47.450;7.516;2022-12-07T20:17:29;17.40;;;15.33;;
9052;SDS011;4561;47.450;7.516;2022-12-07T20:20:56;15.80;;;12.87;;
9052;SDS011;4561;47.450;7.516;2022-12-07T20:24:18;15.50;;;12.57;;
9052;SDS011;4561;47.450;7.516;2022-12-07T20:27:40;15.20;;;11.97;;
9052;SDS011;4561;47.450;7.516;2022-12-07T20:31:00;13.50;;;12.07;;
9052;SDS011;4561;47.450;7.516;2022-12-07T20:34:21;15.97;;;12.60;;
9052;SDS011;4561;47.450;7.516;2022-12-07T20:37:41;14.70;;;13.10;;
9052;SDS011;4561;47.450;7.516;2022-12-07T20:41:03;15.60;;;13.30;;
9052;SDS011;4561;47.450;7.516;2022-12-07T20:44:27;14.30;;;12.07;;
9052;SDS011;4561;47.450;7.516;2022-12-07T20:47:47;13.53;;;12.10;;
9052;SDS011;4561;47.450;7.516;2022-12-07T20:51:10;15.70;;;14.00;;
9052;SDS011;4561;47.450;7.516;2022-12-07T20:54:30;18.33;;;16.33;;
9052;SDS011;4561;47.450;7.516;2022-12-07T20:57:53;21.83;;;18.67;;
9052;SDS011;4561;47.450;7.516;2022-12-07T21:01:14;23.03;;;17.77;;
9052;SDS011;4561;47.450;7.516;2022-12-07T21:04:34;23.53;;;17.90;;
9052;SDS011;4561;47.450;7.516;2022-12-07T21:07:55;18.60;;;16.57;;
9052;SDS011;4561;47.450;7.516;2022-12-07T21:11:20;19.97;;;16.57;;
9052;SDS011;4561;47.450;7.516;2022-12-07T21:14:41;18.90;;;16.67;;
9052;SDS011;4561;47.450;7.516;2022-12-07T21:18:02;18.20;;;15.43;;
9052;SDS011;4561;47.450;7.516;2022-12-07T21:21:23;20.53;;;15.97;;
9052;SDS011;4561;47.450;7.516;2022-12-07T21:24:43;16.07;;;13.63;;
9052;SDS011;4561;47.450;7.516;2022-12-07T21:28:04;14.77;;;12.80;;
9052;SDS011;4561;47.450;7.516;2022-12-07T21:31:24;15.17;;;12.60;;
9052;SDS011;4561;47.450;7.516;2022-12-07T21:34:45;17.07;;;13.70;;
9052;SDS011;4561;47.450;7.516;2022-12-07T21:38:09;18.93;;;15.10;;
9052;SDS011;4561;47.450;7.516;2022-12-07T21:41:32;15.43;;;13.63;;
9052;SDS011;4561;47.450;7.516;2022-12-07T21:44:53;15.77;;;12.90;;
9052;SDS011;4561;47.450;7.516;2022-12-07T21:48:14;17.03;;;13.87;;
9052;SDS011;4561;47.450;7.516;2022-12-07T21:51:34;16.17;;;13.90;;
9052;SDS011;4561;47.450;7.516;2022-12-07T21:54:55;16.10;;;14.03;;
9052;SDS011;4561;47.450;7.516;2022-12-07T21:58:15;18.83;;;16.00;;
9052;SDS011;4561;47.450;7.516;2022-12-07T22:01:36;21.17;;;15.47;;
9052;SDS011;4561;47.450;7.516;2022-12-07T22:05:01;16.40;;;14.70;;
9052;SDS011;4561;47.450;7.516;2022-12-07T22:08:21;16.83;;;14.53;;
9052;SDS011;4561;47.450;7.516;2022-12-07T22:11:41;14.77;;;12.33;;
9052;SDS011;4561;47.450;7.516;2022-12-07T22:15:02;17.30;;;13.43;;
9052;SDS011;4561;47.450;7.516;2022-12-07T22:18:25;16.73;;;13.80;;
9052;SDS011;4561;47.450;7.516;2022-12-07T22:21:48;15.37;;;13.77;;
9052;SDS011;4561;47.450;7.516;2022-12-07T22:25:09;15.50;;;13.60;;
9052;SDS011;4561;47.450;7.516;2022-12-07T22:28:29;24.03;;;17.17;;
9052;SDS011;4561;47.450;7.516;2022-12-07T22:31:50;30.93;;;22.67;;